Stations météo

réclame
Mon MeteoGroup
Andujar, Espagne (8347): Température de l'air & dewpoint: 14.08.2018 22:00:00 - 20.08.2018 22:00:00 (CEST)Andujar, Espagne (8347): Vitesse du vent & gusts: 14.08.2018 22:00:00 - 20.08.2018 22:00:00 (CEST)Andujar, Espagne (8347): Direction du vent: 14.08.2018 22:00:00 - 20.08.2018 22:00:00 (CEST)Andujar, Espagne (8347): reduced air pressure: 14.08.2018 22:00:00 - 20.08.2018 22:00:00 (CEST)Andujar, Espagne (8347): Quantités de précipitations: 14.08.2018 22:00:00 - 20.08.2018 22:00:00 (CEST)
Date & Time tt [°C] td [°C] ff [km/h] ff [knt] fx [km/h] fx [knt] dd ppp [hPa] rr [mm]
20.08.2018 22:00:00 - - - - - - - - -
20.08.2018 21:00:00 31,0 21,8 18 10 27 14 W 1011,3 0,0
20.08.2018 20:00:00 34,4 20,4 3 2 14 7 S 1010,7 -
20.08.2018 19:00:00 35,8 20,9 5 3 19 10 ESE 1010,8 0,0
20.08.2018 18:00:00 37,1 21,6 8 4 23 12 ESE 1011,2 0,0
20.08.2018 17:00:00 36,8 21,0 10 5 21 12 SE 1011,6 0,0
20.08.2018 16:00:00 36,6 21,6 7 4 20 11 ESE 1012,5 0,0
20.08.2018 15:00:00 37,6 24,0 5 3 22 12 E 1013,4 0,0
20.08.2018 14:00:00 34,5 22,9 8 4 20 11 ESE 1014,4 -
20.08.2018 13:00:00 33,3 23,9 7 4 19 11 ESE 1015,1 0,0
20.08.2018 12:00:00 30,8 23,7 6 3 16 9 E 1015,6 0,0
20.08.2018 11:00:00 29,2 23,6 5 3 12 7 E 1015,9 0,0
20.08.2018 10:00:00 27,2 24,8 3 2 9 5 E 1016,1 0,0
20.08.2018 09:00:00 24,5 24,4 0 0 8 5 N 1016,0 0,0
20.08.2018 08:00:00 22,2 22,0 2 1 11 6 WNW 1016,0 -
20.08.2018 07:00:00 23,3 23,0 5 3 15 8 WSW 1015,7 0,0
20.08.2018 06:00:00 23,7 22,9 10 5 21 11 W 1015,3 0,0
20.08.2018 05:00:00 24,7 22,6 11 6 21 11 W 1015,2 0,0
20.08.2018 04:00:00 25,2 22,5 13 7 21 11 W 1015,1 0,0
20.08.2018 03:00:00 26,0 22,5 10 5 17 9 W 1015,1 0,0
20.08.2018 02:00:00 26,4 22,7 8 5 16 9 WNW 1015,0 -
20.08.2018 01:00:00 27,1 22,9 10 5 17 9 NW 1015,0 0,0
20.08.2018 00:00:00 27,5 22,4 8 4 14 7 W 1014,6 0,0
19.08.2018 23:00:00 29,6 22,1 9 5 26 14 W 1013,9 0,0
19.08.2018 22:00:00 30,6 22,7 6 3 20 11 WSW 1012,7 0,0
19.08.2018 21:00:00 31,9 22,3 0 0 9 5 N 1011,8 0,0
19.08.2018 20:00:00 35,5 23,2 6 3 15 8 E 1011,3 -
19.08.2018 19:00:00 37,7 23,7 7 4 18 10 NE 1011,2 0,0
19.08.2018 18:00:00 38,1 24,5 6 3 18 10 ESE 1011,5 0,0
19.08.2018 17:00:00 37,8 25,3 6 3 20 11 ESE 1011,7 0,0
19.08.2018 16:00:00 37,9 26,3 6 3 20 11 SE 1012,4 0,0
19.08.2018 15:00:00 36,3 25,8 7 4 21 11 E 1013,1 0,0
19.08.2018 14:00:00 34,7 25,8 9 5 19 11 ESE 1014,0 -
19.08.2018 13:00:00 33,2 25,7 8 4 19 10 ESE 1014,9 0,0
19.08.2018 12:00:00 31,5 25,8 8 5 21 11 ESE 1015,2 0,0
19.08.2018 11:00:00 29,2 24,9 9 5 18 10 E 1015,8 0,0
19.08.2018 10:00:00 27,3 24,4 2 1 9 5 E 1016,0 0,0
19.08.2018 09:00:00 23,0 21,4 0 0 1 1 N 1016,2 0,0
19.08.2018 08:00:00 20,1 19,6 0 0 4 2 E 1016,0 -
19.08.2018 07:00:00 20,3 19,5 0 0 4 2 E 1015,6 0,0
19.08.2018 06:00:00 21,4 20,1 0 0 5 3 S 1014,9 0,0
19.08.2018 05:00:00 21,7 20,3 2 1 6 3 W 1015,0 0,0
19.08.2018 04:00:00 23,0 20,5 3 1 7 4 WSW 1014,6 0,0
19.08.2018 03:00:00 23,6 20,3 1 0 6 3 S 1014,4 0,0
19.08.2018 02:00:00 23,7 19,8 0 0 3 2 N 1014,1 -
19.08.2018 01:00:00 25,3 20,1 0 0 12 6 SE 1013,9 0,0
19.08.2018 00:00:00 25,1 20,6 7 4 9 5 W 1013,4 0,0
18.08.2018 23:00:00 28,9 20,9 8 4 15 8 SW 1012,9 0,0
18.08.2018 22:00:00 30,5 21,8 4 2 12 6 E 1012,1 0,0
18.08.2018 21:00:00 31,6 20,3 4 2 8 5 SW 1011,0 0,0
18.08.2018 20:00:00 34,7 23,1 3 1 10 6 WNW 1010,5 -
18.08.2018 19:00:00 35,4 23,7 5 3 16 9 WNW 1010,5 0,0
18.08.2018 18:00:00 36,3 23,9 5 3 23 12 WNW 1010,6 0,0
18.08.2018 17:00:00 36,9 25,1 6 3 15 8 NW 1011,0 0,0
18.08.2018 16:00:00 37,3 25,8 4 2 13 7 WNW 1011,7 0,0
18.08.2018 15:00:00 34,6 24,8 5 3 15 8 NNW 1012,7 0,0
18.08.2018 14:00:00 34,7 25,8 3 2 11 6 WNW 1013,6 -
18.08.2018 13:00:00 33,3 25,1 4 2 13 7 ESE 1014,6 0,0
18.08.2018 12:00:00 31,0 23,9 4 2 12 7 E 1015,2 0,0
18.08.2018 11:00:00 28,6 23,7 7 4 14 8 E 1015,3 0,0
18.08.2018 10:00:00 25,9 23,2 6 3 10 6 E 1015,5 0,0
18.08.2018 09:00:00 21,5 20,3 0 0 0 0 N 1015,7 0,0
18.08.2018 08:00:00 19,4 18,8 0 0 2 1 N 1015,4 -
18.08.2018 07:00:00 19,5 18,8 0 0 4 2 SE 1015,0 0,0
18.08.2018 06:00:00 20,5 18,8 3 1 6 3 ESE 1014,5 0,0
18.08.2018 05:00:00 21,1 19,1 3 2 6 3 ESE 1014,5 0,0
18.08.2018 04:00:00 22,1 19,5 1 0 3 2 ESE 1014,1 0,0
18.08.2018 03:00:00 22,8 19,3 0 0 4 2 WNW 1013,9 0,0
18.08.2018 02:00:00 23,5 20,1 5 3 10 6 W 1014,0 -
18.08.2018 01:00:00 25,0 19,6 6 3 14 7 NW 1013,7 0,0
18.08.2018 00:00:00 25,3 19,9 1 1 10 6 SW 1013,2 0,0
17.08.2018 23:00:00 26,6 20,2 1 0 8 4 WSW 1012,5 0,0
17.08.2018 22:00:00 27,1 19,2 2 1 6 4 NW 1012,0 0,0
17.08.2018 21:00:00 31,4 20,1 4 2 6 4 S 1011,0 0,0
17.08.2018 20:00:00 33,5 21,6 2 1 9 5 SSW 1010,7 -
17.08.2018 19:00:00 34,5 21,9 3 2 13 7 SW 1010,4 0,0
17.08.2018 18:00:00 34,6 22,3 3 2 10 5 WNW 1010,6 0,0
17.08.2018 17:00:00 35,6 22,9 5 3 18 10 WSW 1011,0 0,0
17.08.2018 16:00:00 35,6 21,8 5 3 10 5 ESE 1012,0 0,0
17.08.2018 15:00:00 34,5 22,6 2 1 11 6 W 1013,0 0,0
17.08.2018 14:00:00 31,7 23,3 4 2 10 6 WNW 1014,0 -
17.08.2018 13:00:00 30,3 23,5 5 3 9 5 NW 1014,7 0,0
17.08.2018 12:00:00 28,4 22,9 3 2 11 6 WNW 1015,3 0,0
17.08.2018 11:00:00 27,2 22,6 3 1 9 5 ESE 1015,6 0,0
17.08.2018 10:00:00 25,6 22,7 2 1 7 4 SE 1015,5 0,0
17.08.2018 09:00:00 21,7 21,5 0 0 5 3 WNW 1016,0 0,0
17.08.2018 08:00:00 19,1 18,9 3 2 6 4 W 1015,7 -
17.08.2018 07:00:00 20,4 20,3 1 1 5 3 ESE 1015,0 0,0
17.08.2018 06:00:00 21,1 20,8 1 1 7 4 ESE 1014,8 0,0
17.08.2018 05:00:00 22,0 21,0 2 1 11 6 SE 1014,6 0,0
17.08.2018 04:00:00 23,9 21,2 8 4 18 10 SW 1014,7 0,0
17.08.2018 03:00:00 23,0 20,9 1 1 6 3 SE 1015,1 0,0
17.08.2018 02:00:00 23,7 20,7 1 1 7 4 E 1014,4 -
17.08.2018 01:00:00 23,8 20,7 3 1 6 3 E 1014,7 0,0
17.08.2018 00:00:00 23,3 20,7 2 1 19 10 W 1014,8 0,0
16.08.2018 23:00:00 24,8 20,1 10 6 31 17 SSE 1014,2 0,0
16.08.2018 22:00:00 27,2 19,3 16 9 31 17 ESE 1014,2 0,0
16.08.2018 21:00:00 29,0 19,1 9 5 34 19 NW 1012,4 0,0
16.08.2018 20:00:00 - - - - - - - - -
16.08.2018 19:00:00 32,9 23,6 5 3 15 8 W 1010,6 0,0
16.08.2018 18:00:00 34,7 22,7 6 4 21 11 N 1010,8 0,0
16.08.2018 17:00:00 33,8 23,8 8 5 18 10 NW 1011,0 0,0
16.08.2018 16:00:00 34,1 24,4 5 3 18 10 W 1011,8 0,0
16.08.2018 15:00:00 32,9 25,4 6 3 18 10 W 1012,6 0,0
16.08.2018 14:00:00 31,2 24,8 5 3 18 10 WNW 1013,4 -
16.08.2018 13:00:00 29,3 24,8 4 2 14 7 WNW 1014,6 0,0
16.08.2018 12:00:00 26,8 23,3 5 3 15 8 WNW 1015,5 0,0
16.08.2018 11:00:00 24,3 22,2 6 3 16 9 W 1015,8 0,0
16.08.2018 10:00:00 22,7 22,0 6 4 14 8 W 1015,9 0,0
16.08.2018 09:00:00 20,5 20,3 5 3 11 6 WNW 1015,9 0,0
16.08.2018 08:00:00 18,2 18,0 5 3 10 5 W 1016,2 -
16.08.2018 07:00:00 19,3 19,1 6 3 11 6 W 1015,7 0,0
16.08.2018 06:00:00 19,2 19,1 5 3 10 5 WNW 1015,4 0,0
16.08.2018 05:00:00 20,0 19,8 5 3 9 5 WNW 1015,2 0,0
16.08.2018 04:00:00 20,9 20,7 6 4 11 6 W 1015,1 0,0
16.08.2018 03:00:00 22,3 20,9 7 4 17 9 NW 1014,8 0,0
16.08.2018 02:00:00 23,1 20,3 8 4 15 8 WNW 1014,3 -
16.08.2018 01:00:00 24,4 19,3 6 3 22 12 NW 1014,0 0,0
16.08.2018 00:00:00 27,0 19,3 12 7 22 12 WSW 1013,4 0,0
15.08.2018 23:00:00 28,1 20,4 12 6 19 10 WSW 1013,1 0,0
15.08.2018 22:00:00 28,7 20,7 11 6 19 11 WSW 1012,5 0,0
15.08.2018 21:00:00 29,4 20,8 7 4 24 13 W 1011,9 0,0
15.08.2018 20:00:00 31,4 21,0 16 9 29 16 W 1011,1 -
15.08.2018 19:00:00 32,8 22,6 16 9 29 16 WNW 1011,3 0,0
15.08.2018 18:00:00 33,0 23,6 16 9 32 17 WNW 1011,4 0,0
15.08.2018 17:00:00 34,3 24,0 14 8 27 15 W 1011,9 0,0
15.08.2018 16:00:00 33,5 24,4 15 8 28 15 WNW 1012,3 0,0
15.08.2018 15:00:00 32,8 24,3 14 7 23 12 WNW 1013,3 0,0
15.08.2018 14:00:00 32,1 23,6 10 5 19 11 WNW 1014,1 -
15.08.2018 13:00:00 30,4 22,3 8 4 18 10 W 1014,8 0,0
15.08.2018 12:00:00 28,1 19,6 10 5 15 8 WNW 1015,4 0,0
15.08.2018 11:00:00 26,0 19,8 6 3 11 6 NW 1015,7 0,0
15.08.2018 10:00:00 23,9 20,5 3 2 8 4 NW 1016,0 0,0
15.08.2018 09:00:00 21,0 19,6 4 2 7 4 WNW 1015,9 0,0
15.08.2018 08:00:00 17,1 16,6 1 0 6 3 WSW 1015,8 -
15.08.2018 07:00:00 17,5 15,9 0 0 4 2 W 1015,0 0,0
15.08.2018 06:00:00 18,9 16,3 1 1 4 2 W 1014,8 0,0
15.08.2018 05:00:00 19,4 16,6 0 0 3 2 N 1014,8 0,0
15.08.2018 04:00:00 20,8 16,8 2 1 4 2 WNW 1014,9 0,0
15.08.2018 03:00:00 21,4 18,0 3 1 19 10 NW 1015,0 0,0
15.08.2018 02:00:00 23,8 17,8 6 3 11 6 WSW 1015,0 -
15.08.2018 01:00:00 23,8 16,3 3 1 17 9 W 1014,6 0,0
15.08.2018 00:00:00 28,1 17,6 11 6 18 10 WSW 1013,7 0,0
14.08.2018 23:00:00 27,8 16,7 10 5 17 9 WSW 1013,5 0,0
14.08.2018 22:00:00 29,5 18,6 9 5 17 9 W 1012,6 0,0

tt = Température de l'air
td = dewpoint
ff = Vitesse du vent
fx = gusts
dd = Direction du vent
ppp = reduced air pressure
rr = Quantités de précipitations

stations d'obs. à proximité